createdAt,value
2017-05-24T00:00:13.387Z,12.54
2017-05-24T00:01:14.858Z,12.44
2017-05-24T00:02:16.310Z,12.45
2017-05-24T00:03:17.764Z,12.48
2017-05-24T00:04:19.218Z,12.45
2017-05-24T00:05:20.670Z,12.52
2017-05-24T00:06:22.122Z,12.56
2017-05-24T00:07:23.581Z,12.49
2017-05-24T00:08:25.026Z,12.49
2017-05-24T00:09:26.476Z,12.34
2017-05-24T00:10:27.946Z,12.39
2017-05-24T00:11:29.386Z,12.39
2017-05-24T00:12:30.838Z,12.33
2017-05-24T00:13:32.294Z,12.46
2017-05-24T00:14:33.741Z,12.29
2017-05-24T00:15:35.199Z,12.34
2017-05-24T00:16:36.656Z,12.42
2017-05-24T00:17:38.108Z,12.31
2017-05-24T00:18:39.559Z,12.29
2017-05-24T00:19:41.016Z,12.26
2017-05-24T00:20:42.469Z,12.44
2017-05-24T00:21:43.918Z,12.38
2017-05-24T00:22:45.376Z,12.42
2017-05-24T00:23:46.824Z,12.34
2017-05-24T00:24:48.277Z,12.44
2017-05-24T00:25:49.735Z,12.33
2017-05-24T00:26:51.190Z,12.34
2017-05-24T00:27:52.642Z,12.23
2017-05-24T00:28:54.097Z,12.16
2017-05-24T00:29:55.554Z,12.06
2017-05-24T00:30:57.005Z,12.06
2017-05-24T00:31:58.463Z,12.19
2017-05-24T00:32:59.917Z,12.09
2017-05-24T00:34:01.376Z,12.13
2017-05-24T00:35:02.831Z,12.09
2017-05-24T00:36:04.283Z,12.13
2017-05-24T00:37:05.738Z,12.05
2017-05-24T00:38:07.191Z,12.12
2017-05-24T00:39:08.642Z,11.94
2017-05-24T00:40:10.094Z,12.15
2017-05-24T00:41:11.547Z,12.12
2017-05-24T00:42:12.999Z,12.02
2017-05-24T00:43:14.452Z,12.11
2017-05-24T00:44:15.905Z,12.11
2017-05-24T00:45:17.356Z,12.06
2017-05-24T00:46:19.018Z,12.26
2017-05-24T00:47:20.462Z,12.15
2017-05-24T00:48:21.916Z,12.13
2017-05-24T00:49:23.371Z,12.13
2017-05-24T00:50:24.819Z,12.05
2017-05-24T00:51:26.274Z,12.12
2017-05-24T00:52:27.726Z,12.11
2017-05-24T00:53:29.187Z,12.19
2017-05-24T00:54:30.634Z,12.05
2017-05-24T00:55:32.082Z,12.11
2017-05-24T00:56:33.540Z,12.05
2017-05-24T00:57:34.991Z,12.01
2017-05-24T00:58:36.444Z,11.96
2017-05-24T00:59:37.894Z,11.99
2017-05-24T01:00:39.351Z,11.80
2017-05-24T01:01:40.798Z,11.82
2017-05-24T01:02:42.250Z,11.80
2017-05-24T01:03:43.703Z,11.77
2017-05-24T01:04:45.201Z,11.83
2017-05-24T01:05:46.623Z,11.86
2017-05-24T01:06:48.062Z,11.85
2017-05-24T01:07:49.519Z,11.87
2017-05-24T01:08:50.969Z,11.87
2017-05-24T01:09:52.423Z,11.90
2017-05-24T01:10:53.870Z,11.77
2017-05-24T01:11:55.328Z,11.62
2017-05-24T01:12:56.782Z,11.67
2017-05-24T01:13:58.236Z,11.59
2017-05-24T01:14:59.694Z,11.49
2017-05-24T01:16:01.145Z,11.38
2017-05-24T01:17:02.596Z,11.29
2017-05-24T01:18:04.051Z,11.52
2017-05-24T01:19:05.500Z,11.49
2017-05-24T01:20:06.975Z,11.34
2017-05-24T01:21:08.425Z,11.14
2017-05-24T01:22:09.886Z,11.13
2017-05-24T01:23:11.339Z,11.03
2017-05-24T01:24:12.796Z,11.11
2017-05-24T01:25:14.257Z,11.27
2017-05-24T01:26:15.743Z,11.38
2017-05-24T01:27:17.200Z,11.35
2017-05-24T01:28:18.653Z,11.29
2017-05-24T01:29:20.113Z,11.29
2017-05-24T01:30:21.565Z,11.35
2017-05-24T01:31:23.019Z,11.39
2017-05-24T01:32:24.471Z,11.27
2017-05-24T01:33:25.929Z,11.28
2017-05-24T01:34:27.401Z,11.20
2017-05-24T01:35:28.859Z,10.98
2017-05-24T01:36:30.317Z,11.07
2017-05-24T01:37:31.766Z,10.94
2017-05-24T01:38:33.215Z,11.09
2017-05-24T01:39:34.674Z,11.24
2017-05-24T01:40:36.137Z,11.10
2017-05-24T01:41:37.589Z,11.17
2017-05-24T01:42:39.059Z,10.98
2017-05-24T01:43:40.517Z,10.92
2017-05-24T01:44:41.962Z,10.71
2017-05-24T01:45:43.416Z,10.78
2017-05-24T01:46:44.871Z,10.84
2017-05-24T01:47:46.324Z,10.80
2017-05-24T01:48:47.771Z,10.96
2017-05-24T01:49:49.226Z,11.07
2017-05-24T01:50:50.675Z,11.21
2017-05-24T01:51:52.145Z,11.19
2017-05-24T01:52:53.592Z,11.01
2017-05-24T01:53:55.054Z,11.07
2017-05-24T01:54:56.510Z,10.99
2017-05-24T01:55:57.984Z,11.24
2017-05-24T01:56:59.440Z,11.06
2017-05-24T01:58:00.901Z,10.96
2017-05-24T01:59:02.346Z,11.10
2017-05-24T02:00:03.796Z,10.84
2017-05-24T02:01:05.242Z,10.91
2017-05-24T02:02:06.693Z,10.88
2017-05-24T02:03:08.154Z,10.74
2017-05-24T02:04:09.601Z,10.74
2017-05-24T02:05:11.051Z,11.03
2017-05-24T02:06:12.506Z,10.99
2017-05-24T02:07:13.958Z,11.01
2017-05-24T02:08:15.421Z,10.99
2017-05-24T02:09:16.894Z,11.06
2017-05-24T02:10:18.339Z,10.99
2017-05-24T02:11:19.811Z,11.02
2017-05-24T02:12:21.264Z,11.16
2017-05-24T02:13:22.723Z,11.10
2017-05-24T02:14:24.186Z,10.99
2017-05-24T02:15:25.654Z,11.01
2017-05-24T02:16:27.110Z,10.96
2017-05-24T02:17:28.557Z,10.99
2017-05-24T02:18:30.005Z,11.09
2017-05-24T02:19:31.456Z,11.13
2017-05-24T02:20:32.909Z,11.13
2017-05-24T02:21:34.370Z,11.13
2017-05-24T02:22:35.827Z,11.32
2017-05-24T02:23:37.277Z,11.34
2017-05-24T02:24:38.746Z,11.32
2017-05-24T02:25:40.238Z,11.32
2017-05-24T02:26:41.751Z,11.34
2017-05-24T02:27:43.155Z,11.34
2017-05-24T02:28:44.615Z,11.21
2017-05-24T02:29:46.063Z,11.21
2017-05-24T02:30:47.513Z,11.36
2017-05-24T02:31:48.966Z,11.46
2017-05-24T02:32:50.422Z,11.59
2017-05-24T02:33:51.870Z,11.52
2017-05-24T02:34:53.320Z,11.61
2017-05-24T02:35:54.808Z,11.57
2017-05-24T02:36:56.386Z,11.57
2017-05-24T02:37:57.834Z,11.75
2017-05-24T02:38:59.284Z,11.77
2017-05-24T02:40:00.738Z,11.80
2017-05-24T02:41:02.206Z,11.94
2017-05-24T02:42:03.659Z,11.83
2017-05-24T02:43:05.116Z,11.94
2017-05-24T02:44:06.560Z,11.93
2017-05-24T02:45:08.007Z,11.75
2017-05-24T02:46:09.476Z,11.82
2017-05-24T02:47:10.931Z,11.83
2017-05-24T02:48:12.382Z,11.85
2017-05-24T02:49:13.844Z,12.04
2017-05-24T02:50:15.291Z,11.94
2017-05-24T02:51:16.802Z,12.08
2017-05-24T02:52:18.198Z,12.05
2017-05-24T02:53:19.647Z,11.85
2017-05-24T02:54:21.134Z,11.83
2017-05-24T02:55:22.619Z,12.01
2017-05-24T02:56:24.072Z,11.99
2017-05-24T02:57:25.526Z,12.06
2017-05-24T02:58:26.978Z,11.99
2017-05-24T02:59:28.427Z,11.94
2017-05-24T03:00:29.880Z,12.05
2017-05-24T03:01:31.333Z,12.09
2017-05-24T03:02:32.785Z,11.94
2017-05-24T03:03:34.236Z,11.97
2017-05-24T03:04:35.688Z,11.97
2017-05-24T03:05:37.148Z,12.06
2017-05-24T03:06:38.600Z,12.12
2017-05-24T03:07:40.051Z,12.08
2017-05-24T03:08:41.506Z,12.12
2017-05-24T03:09:42.955Z,12.05
2017-05-24T03:10:44.411Z,11.99
2017-05-24T03:11:45.870Z,12.04
2017-05-24T03:12:47.327Z,12.01
2017-05-24T03:13:48.781Z,12.08
2017-05-24T03:14:50.239Z,12.02
2017-05-24T03:15:51.728Z,11.99
2017-05-24T03:16:53.194Z,11.94
2017-05-24T03:17:54.652Z,11.90
2017-05-24T03:18:56.108Z,12.04
2017-05-24T03:19:57.561Z,11.94
2017-05-24T03:20:59.012Z,11.97
2017-05-24T03:22:00.471Z,11.87
2017-05-24T03:23:01.936Z,11.90
2017-05-24T03:24:03.386Z,11.96
2017-05-24T03:25:04.845Z,11.87
2017-05-24T03:26:06.317Z,11.93
2017-05-24T03:27:07.767Z,11.83
2017-05-24T03:28:09.224Z,11.77
2017-05-24T03:29:10.678Z,11.77
2017-05-24T03:30:12.138Z,11.70
2017-05-24T03:31:13.601Z,11.74
2017-05-24T03:32:15.054Z,11.77
2017-05-24T03:33:16.509Z,11.68
2017-05-24T03:34:17.962Z,11.85
2017-05-24T03:35:19.416Z,11.80
2017-05-24T03:36:20.873Z,11.83
2017-05-24T03:37:22.331Z,11.87
2017-05-24T03:38:23.803Z,11.83
2017-05-24T03:39:25.254Z,11.77
2017-05-24T03:40:26.710Z,11.77
2017-05-24T03:41:28.161Z,11.77
2017-05-24T03:42:29.615Z,11.74
2017-05-24T03:43:31.071Z,11.78
2017-05-24T03:44:32.525Z,11.78
2017-05-24T03:45:33.980Z,11.67
2017-05-24T03:46:35.431Z,11.71
2017-05-24T03:47:36.892Z,11.72
2017-05-24T03:48:38.360Z,11.67
2017-05-24T03:49:39.855Z,11.80
2017-05-24T03:50:41.308Z,11.71
2017-05-24T03:51:42.774Z,11.75
2017-05-24T03:52:44.230Z,11.68
2017-05-24T03:53:45.685Z,11.59
2017-05-24T03:54:47.138Z,11.57
2017-05-24T03:55:48.591Z,11.54
2017-05-24T03:56:50.056Z,11.53
2017-05-24T03:57:51.514Z,11.57
2017-05-24T03:58:52.974Z,11.65
2017-05-24T03:59:54.433Z,11.70
2017-05-24T04:00:55.885Z,11.70
2017-05-24T04:01:57.341Z,11.82
2017-05-24T04:02:58.802Z,11.83
2017-05-24T04:04:00.255Z,11.83
2017-05-24T04:05:01.715Z,11.93
2017-05-24T04:06:03.171Z,11.97
2017-05-24T04:07:04.630Z,11.90
2017-05-24T04:08:06.091Z,11.83
2017-05-24T04:09:07.547Z,11.85
2017-05-24T04:10:09.039Z,11.85
2017-05-24T04:11:10.495Z,11.97
2017-05-24T04:12:11.963Z,11.93
2017-05-24T04:13:13.418Z,11.87
2017-05-24T04:14:14.897Z,11.85
2017-05-24T04:15:16.350Z,11.82
2017-05-24T04:16:17.813Z,11.83
2017-05-24T04:17:19.278Z,11.74
2017-05-24T04:18:20.732Z,11.86
2017-05-24T04:19:22.196Z,11.78
2017-05-24T04:20:23.663Z,11.80
2017-05-24T04:21:25.125Z,11.80
2017-05-24T04:22:26.578Z,11.82
2017-05-24T04:23:28.044Z,11.70
2017-05-24T04:24:29.500Z,11.75
2017-05-24T04:25:30.964Z,11.80
2017-05-24T04:26:32.439Z,11.86
2017-05-24T04:27:33.893Z,11.93
2017-05-24T04:28:35.362Z,11.94
2017-05-24T04:29:36.825Z,11.90
2017-05-24T04:30:38.294Z,11.93
2017-05-24T04:31:39.751Z,11.93
2017-05-24T04:32:41.207Z,12.06
2017-05-24T04:33:42.672Z,12.06
2017-05-24T04:34:44.128Z,12.13
2017-05-24T04:35:45.594Z,12.19
2017-05-24T04:36:47.056Z,12.27
2017-05-24T04:37:48.515Z,12.31
2017-05-24T04:38:49.973Z,12.45
2017-05-24T04:39:51.437Z,12.52
2017-05-24T04:40:52.904Z,12.57
2017-05-24T04:41:54.365Z,12.66
2017-05-24T04:42:55.822Z,12.75
2017-05-24T04:43:57.279Z,12.84
2017-05-24T04:44:58.733Z,12.81
2017-05-24T04:46:00.266Z,12.93
2017-05-24T04:47:01.740Z,13.00
2017-05-24T04:48:03.197Z,13.07
2017-05-24T04:49:04.663Z,13.04
2017-05-24T04:50:06.147Z,13.22
2017-05-24T04:51:07.602Z,13.30
2017-05-24T04:52:09.071Z,13.27
2017-05-24T04:53:10.525Z,13.29
2017-05-24T04:54:12.035Z,13.44
2017-05-24T04:55:13.498Z,13.44
2017-05-24T04:56:14.952Z,13.46
2017-05-24T04:57:16.419Z,13.37
2017-05-24T04:58:17.891Z,13.36
2017-05-24T04:59:19.345Z,13.38
2017-05-24T05:00:20.811Z,13.65
2017-05-24T05:01:22.269Z,13.55
2017-05-24T05:02:23.735Z,13.62
2017-05-24T05:03:25.191Z,13.74
2017-05-24T05:04:26.651Z,13.63
2017-05-24T05:05:28.107Z,13.89
2017-05-24T05:06:29.564Z,13.92
2017-05-24T05:07:31.028Z,13.99
2017-05-24T05:08:32.485Z,14.06
2017-05-24T05:09:33.944Z,14.02
2017-05-24T05:10:35.401Z,14.13
2017-05-24T05:11:36.873Z,14.27
2017-05-24T05:12:38.330Z,14.21
2017-05-24T05:13:39.796Z,14.28
2017-05-24T05:14:41.253Z,14.24
2017-05-24T05:15:42.757Z,14.49
2017-05-24T05:16:44.223Z,14.46
2017-05-24T05:17:45.688Z,14.62
2017-05-24T05:18:47.157Z,14.56
2017-05-24T05:19:48.632Z,14.57
2017-05-24T05:20:50.098Z,14.86
2017-05-24T05:21:51.568Z,14.84
2017-05-24T05:22:53.033Z,14.86
2017-05-24T05:23:54.494Z,14.90
2017-05-24T05:24:55.957Z,14.99
2017-05-24T05:25:57.424Z,15.02
2017-05-24T05:26:58.896Z,15.12
2017-05-24T05:28:00.380Z,15.28
2017-05-24T05:29:01.857Z,15.46
2017-05-24T05:30:03.325Z,15.74
2017-05-24T05:31:04.795Z,16.04
2017-05-24T05:32:06.266Z,16.25
2017-05-24T05:33:07.732Z,16.67
2017-05-24T05:34:09.194Z,17.23
2017-05-24T05:35:10.661Z,18.09
2017-05-24T05:36:12.160Z,18.37
2017-05-24T05:37:13.627Z,18.49
2017-05-24T05:38:15.096Z,18.10
2017-05-24T05:39:16.567Z,17.87
2017-05-24T05:40:18.057Z,17.79
2017-05-24T05:41:19.518Z,17.54
2017-05-24T05:42:20.984Z,17.59
2017-05-24T05:43:22.455Z,17.54
2017-05-24T05:44:23.941Z,17.53
2017-05-24T05:45:25.478Z,18.03
2017-05-24T05:46:26.953Z,18.82
2017-05-24T05:47:28.433Z,19.14
2017-05-24T05:48:29.900Z,19.36
2017-05-24T05:49:31.370Z,19.65
2017-05-24T05:50:32.863Z,19.58
2017-05-24T05:51:34.322Z,19.80
2017-05-24T05:52:35.788Z,19.33
2017-05-24T05:53:37.295Z,19.21
2017-05-24T05:54:38.770Z,18.62
2017-05-24T05:55:40.232Z,18.72
2017-05-24T05:56:41.704Z,18.47
2017-05-24T05:57:43.185Z,18.70
2017-05-24T05:58:44.664Z,18.73
2017-05-24T05:59:46.143Z,19.33
2017-05-24T06:00:47.637Z,19.88
2017-05-24T06:01:49.110Z,20.23
2017-05-24T06:02:50.578Z,20.61
2017-05-24T06:03:52.103Z,20.08
2017-05-24T06:04:53.528Z,20.34
2017-05-24T06:05:54.994Z,20.46
2017-05-24T06:06:56.499Z,20.28
2017-05-24T06:07:57.979Z,19.38
2017-05-24T06:08:59.452Z,19.65
2017-05-24T06:10:00.946Z,19.90
2017-05-24T06:11:02.445Z,20.62
2017-05-24T06:12:03.919Z,20.86
2017-05-24T06:13:05.404Z,20.54
2017-05-24T06:14:06.892Z,20.74
2017-05-24T06:15:08.366Z,20.62
2017-05-24T06:16:09.846Z,20.30
2017-05-24T06:17:11.314Z,20.00
2017-05-24T06:18:12.793Z,20.05
2017-05-24T06:19:14.283Z,20.35
2017-05-24T06:20:15.767Z,20.86
2017-05-24T06:21:17.252Z,21.36
2017-05-24T06:22:18.728Z,21.90
2017-05-24T06:23:20.216Z,22.20
2017-05-24T06:24:21.690Z,21.92
2017-05-24T06:25:23.165Z,22.12
2017-05-24T06:26:24.637Z,22.50
2017-05-24T06:27:26.109Z,21.69
2017-05-24T06:28:27.585Z,21.09
2017-05-24T06:29:29.062Z,20.50
2017-05-24T06:30:30.536Z,20.65
2017-05-24T06:31:32.019Z,20.49
2017-05-24T06:32:33.485Z,19.95
2017-05-24T06:33:34.957Z,19.58
2017-05-24T06:34:36.425Z,19.42
2017-05-24T06:35:37.903Z,18.83
2017-05-24T06:36:39.372Z,18.39
2017-05-24T06:37:40.864Z,18.55
2017-05-24T06:38:42.328Z,18.42
2017-05-24T06:39:43.800Z,18.31
2017-05-24T06:40:45.283Z,18.34
2017-05-24T06:41:46.750Z,18.04
2017-05-24T06:42:48.219Z,17.84
2017-05-24T06:43:49.687Z,17.89
2017-05-24T06:44:51.166Z,18.02
2017-05-24T06:45:52.631Z,17.85
2017-05-24T06:46:54.100Z,18.10
2017-05-24T06:47:55.575Z,18.00
2017-05-24T06:48:57.046Z,17.89
2017-05-24T06:49:58.514Z,17.84
2017-05-24T06:50:59.987Z,17.79
2017-05-24T06:52:01.466Z,17.55
2017-05-24T06:53:02.934Z,17.47
2017-05-24T06:54:04.410Z,17.53
2017-05-24T06:55:05.884Z,17.50
2017-05-24T06:56:07.366Z,17.50
2017-05-24T06:57:08.854Z,17.48
2017-05-24T06:58:10.310Z,17.63
2017-05-24T06:59:11.830Z,17.62
2017-05-24T07:00:13.299Z,17.70
2017-05-24T07:01:14.774Z,17.88
2017-05-24T07:02:16.243Z,18.21
2017-05-24T07:03:17.726Z,18.33
2017-05-24T07:04:19.189Z,18.34
2017-05-24T07:05:20.658Z,18.55
2017-05-24T07:06:22.152Z,18.39
2017-05-24T07:07:23.615Z,18.70
2017-05-24T07:08:26.829Z,18.73
2017-05-24T07:09:28.306Z,18.58
2017-05-24T07:10:29.782Z,18.43
2017-05-24T07:11:31.247Z,18.34
2017-05-24T07:12:32.730Z,18.25
2017-05-24T07:13:34.200Z,18.37
2017-05-24T07:14:35.669Z,18.29
2017-05-24T07:15:37.141Z,18.34
2017-05-24T07:16:38.612Z,18.36
2017-05-24T07:17:40.075Z,18.50
2017-05-24T07:18:41.544Z,18.73
2017-05-24T07:19:43.048Z,18.82
2017-05-24T07:20:44.514Z,18.74
2017-05-24T07:21:46.005Z,18.70
2017-05-24T07:22:47.483Z,18.70
2017-05-24T07:23:48.998Z,18.33
2017-05-24T07:24:50.465Z,18.27
2017-05-24T07:25:51.934Z,18.27
2017-05-24T07:26:53.405Z,18.34
2017-05-24T07:27:54.881Z,18.54
2017-05-24T07:28:56.342Z,18.65
2017-05-24T07:29:57.810Z,18.52
2017-05-24T07:30:59.275Z,18.34
2017-05-24T07:32:00.745Z,18.34
2017-05-24T07:33:02.217Z,18.36
2017-05-24T07:34:03.683Z,18.36
2017-05-24T07:35:05.167Z,18.54
2017-05-24T07:36:06.636Z,18.61
2017-05-24T07:37:08.111Z,18.64
2017-05-24T07:38:09.576Z,18.59
2017-05-24T07:39:11.047Z,18.73
2017-05-24T07:40:12.515Z,18.65
2017-05-24T07:41:13.989Z,18.42
2017-05-24T07:42:15.458Z,18.54
2017-05-24T07:43:16.922Z,18.82
2017-05-24T07:44:18.397Z,18.76
2017-05-24T07:45:19.916Z,19.08
2017-05-24T07:46:21.385Z,18.62
2017-05-24T07:47:22.847Z,18.55
2017-05-24T07:48:24.327Z,18.94
2017-05-24T07:49:25.831Z,19.11
2017-05-24T07:50:27.295Z,19.02
2017-05-24T07:51:28.766Z,19.18
2017-05-24T07:52:30.278Z,19.69
2017-05-24T07:53:31.751Z,19.70
2017-05-24T07:54:33.190Z,20.08
2017-05-24T07:55:34.663Z,21.24
2017-05-24T07:56:36.132Z,21.91
2017-05-24T07:57:37.597Z,21.81
2017-05-24T07:58:39.061Z,21.35
2017-05-24T07:59:40.536Z,20.74
2017-05-24T08:00:42.008Z,21.09
2017-05-24T08:01:43.541Z,20.93
2017-05-24T08:02:44.973Z,20.51
2017-05-24T08:03:46.459Z,20.46
2017-05-24T08:04:47.933Z,20.76
2017-05-24T08:05:49.402Z,21.46
2017-05-24T08:06:50.875Z,21.16
2017-05-24T08:07:52.341Z,20.65
2017-05-24T08:08:53.816Z,20.51
2017-05-24T08:09:55.288Z,20.79
2017-05-24T08:10:56.780Z,20.43
2017-05-24T08:11:58.255Z,20.39
2017-05-24T08:12:59.723Z,19.83
2017-05-24T08:14:01.198Z,19.23
2017-05-24T08:15:02.727Z,19.11
2017-05-24T08:16:04.204Z,19.39
2017-05-24T08:17:05.686Z,19.65
2017-05-24T08:18:07.157Z,20.15
2017-05-24T08:19:08.672Z,20.46
2017-05-24T08:20:10.147Z,19.94
2017-05-24T08:21:11.617Z,20.49
2017-05-24T08:22:13.085Z,20.13
2017-05-24T08:23:14.584Z,20.64
2017-05-24T08:24:16.054Z,20.46
2017-05-24T08:25:17.550Z,20.27
2017-05-24T08:26:19.045Z,20.62
2017-05-24T08:27:20.515Z,21.30
2017-05-24T08:28:21.999Z,21.57
2017-05-24T08:29:23.471Z,21.50
2017-05-24T08:30:24.944Z,21.29
2017-05-24T08:31:26.413Z,21.21
2017-05-24T08:32:27.897Z,21.24
2017-05-24T08:33:29.374Z,21.79
2017-05-24T08:34:30.863Z,21.98
2017-05-24T08:35:32.334Z,22.44
2017-05-24T08:36:33.826Z,22.39
2017-05-24T08:37:35.345Z,22.75
2017-05-24T08:38:36.817Z,22.72
2017-05-24T08:39:38.291Z,23.31
2017-05-24T08:40:39.798Z,23.04
2017-05-24T08:41:41.267Z,22.35
2017-05-24T08:42:42.736Z,21.74
2017-05-24T08:43:44.218Z,21.13
2017-05-24T08:44:45.717Z,21.44
2017-05-24T08:45:47.196Z,21.63
2017-05-24T08:46:48.673Z,22.12
2017-05-24T08:47:50.151Z,22.16
2017-05-24T08:48:51.710Z,21.98
2017-05-24T08:49:53.185Z,20.76
2017-05-24T08:50:54.676Z,20.18
2017-05-24T08:51:56.145Z,20.03
2017-05-24T08:52:57.620Z,20.34
2017-05-24T08:53:59.101Z,20.27
2017-05-24T08:55:00.579Z,20.23
2017-05-24T08:56:03.012Z,20.42
2017-05-24T08:57:04.506Z,20.53
2017-05-24T08:58:05.978Z,20.47
2017-05-24T08:59:07.460Z,20.15
2017-05-24T09:00:08.924Z,20.18
2017-05-24T09:01:10.392Z,20.33
2017-05-24T09:02:11.858Z,20.61
2017-05-24T09:03:13.325Z,20.35
2017-05-24T09:04:14.815Z,20.54
2017-05-24T09:05:16.284Z,20.95
2017-05-24T09:06:17.767Z,20.96
2017-05-24T09:07:19.234Z,20.81
2017-05-24T09:08:20.712Z,20.98
2017-05-24T09:09:22.183Z,21.11
2017-05-24T09:10:23.671Z,21.38
2017-05-24T09:11:25.141Z,21.08
2017-05-24T09:12:26.620Z,21.11
2017-05-24T09:13:28.086Z,20.96
2017-05-24T09:14:29.556Z,20.90
2017-05-24T09:15:31.056Z,21.06
2017-05-24T09:16:32.529Z,21.23
2017-05-24T09:17:34.002Z,21.27
2017-05-24T09:18:35.466Z,21.48
2017-05-24T09:19:36.946Z,22.02
2017-05-24T09:20:38.420Z,22.35
2017-05-24T09:21:39.894Z,22.53
2017-05-24T09:22:41.368Z,22.49
2017-05-24T09:23:42.844Z,22.29
2017-05-24T09:24:44.324Z,23.39
2017-05-24T09:25:45.818Z,24.49
2017-05-24T09:26:47.309Z,24.54
2017-05-24T09:27:48.793Z,25.30
2017-05-24T09:28:50.274Z,24.67
2017-05-24T09:29:51.753Z,23.65
2017-05-24T09:30:53.230Z,23.42
2017-05-24T09:31:54.762Z,24.71
2017-05-24T09:32:56.233Z,24.29
2017-05-24T09:33:57.706Z,25.09
2017-05-24T09:34:59.183Z,24.77
2017-05-24T09:36:00.680Z,23.75
2017-05-24T09:37:02.162Z,23.34
2017-05-24T09:38:03.635Z,23.39
2017-05-24T09:39:05.109Z,23.49
2017-05-24T09:40:06.586Z,22.99
2017-05-24T09:41:08.069Z,23.09
2017-05-24T09:42:09.547Z,23.83
2017-05-24T09:43:11.028Z,23.71
2017-05-24T09:44:12.512Z,23.01
2017-05-24T09:45:13.986Z,22.99
2017-05-24T09:46:15.499Z,22.93
2017-05-24T09:47:16.989Z,22.60
2017-05-24T09:48:18.462Z,22.41
2017-05-24T09:49:19.937Z,22.14
2017-05-24T09:50:21.416Z,21.69
2017-05-24T09:51:22.903Z,21.67
2017-05-24T09:52:24.383Z,21.83
2017-05-24T09:53:25.856Z,22.47
2017-05-24T09:54:27.339Z,22.31
2017-05-24T09:55:28.814Z,22.46
2017-05-24T09:56:30.288Z,22.53
2017-05-24T09:57:31.766Z,22.65
2017-05-24T09:58:33.247Z,22.19
2017-05-24T09:59:34.720Z,22.14
2017-05-24T10:00:36.189Z,21.75
2017-05-24T10:01:37.661Z,21.74
2017-05-24T10:02:39.135Z,22.23
2017-05-24T10:03:40.612Z,22.74
2017-05-24T10:04:42.081Z,23.49
2017-05-24T10:05:43.555Z,23.02
2017-05-24T10:06:45.035Z,22.77
2017-05-24T10:07:46.504Z,22.60
2017-05-24T10:08:47.981Z,22.52
2017-05-24T10:09:49.461Z,22.37
2017-05-24T10:10:50.940Z,22.54
2017-05-24T10:11:52.421Z,22.65
2017-05-24T10:12:53.901Z,23.38
2017-05-24T10:13:55.379Z,23.64
2017-05-24T10:14:56.871Z,23.24
2017-05-24T10:15:58.349Z,23.57
2017-05-24T10:16:59.821Z,23.02
2017-05-24T10:18:01.295Z,22.82
2017-05-24T10:19:02.777Z,22.84
2017-05-24T10:20:04.258Z,23.60
2017-05-24T10:21:05.722Z,24.16
2017-05-24T10:22:07.208Z,24.14
2017-05-24T10:23:08.730Z,23.89
2017-05-24T10:24:10.203Z,23.76
2017-05-24T10:25:11.677Z,24.54
2017-05-24T10:26:13.161Z,24.53
2017-05-24T10:27:14.675Z,23.89
2017-05-24T10:28:16.177Z,23.29
2017-05-24T10:29:17.651Z,22.99
2017-05-24T10:30:19.122Z,23.22
2017-05-24T10:31:20.597Z,23.42
2017-05-24T10:32:22.077Z,23.67
2017-05-24T10:33:23.551Z,23.20
2017-05-24T10:34:25.033Z,23.43
2017-05-24T10:35:26.508Z,23.76
2017-05-24T10:36:28.010Z,24.00
2017-05-24T10:37:29.483Z,23.17
2017-05-24T10:38:30.962Z,22.99
2017-05-24T10:39:32.439Z,23.12
2017-05-24T10:40:33.926Z,23.09
2017-05-24T10:41:35.404Z,22.90
2017-05-24T10:42:36.883Z,23.11
2017-05-24T10:43:38.358Z,22.96
2017-05-24T10:44:39.850Z,23.27
2017-05-24T10:45:41.329Z,23.68
2017-05-24T10:46:42.798Z,23.82
2017-05-24T10:47:44.278Z,24.80
2017-05-24T10:48:45.778Z,25.87
2017-05-24T10:49:47.274Z,25.69
2017-05-24T10:50:48.750Z,25.84
2017-05-24T10:51:50.224Z,25.94
2017-05-24T10:52:51.705Z,26.18
2017-05-24T10:53:53.182Z,25.93
2017-05-24T10:54:54.657Z,24.75
2017-05-24T10:55:56.144Z,24.41
2017-05-24T10:56:57.615Z,24.47
2017-05-24T10:57:59.092Z,24.31
2017-05-24T10:59:00.606Z,24.49
2017-05-24T11:00:02.094Z,24.34
2017-05-24T11:01:03.567Z,24.41
2017-05-24T11:02:05.041Z,25.30
2017-05-24T11:03:06.523Z,26.61
2017-05-24T11:04:08.007Z,27.31
2017-05-24T11:05:09.481Z,27.57
2017-05-24T11:06:10.958Z,28.10
2017-05-24T11:07:12.440Z,28.14
2017-05-24T11:08:13.914Z,26.55
2017-05-24T11:09:15.396Z,26.22
2017-05-24T11:10:16.879Z,26.68
2017-05-24T11:11:18.354Z,27.09
2017-05-24T11:12:19.831Z,27.54
2017-05-24T11:13:21.310Z,28.10
2017-05-24T11:14:22.793Z,27.73
2017-05-24T11:15:24.271Z,28.14
2017-05-24T11:16:25.757Z,28.78
2017-05-24T11:17:27.239Z,28.07
2017-05-24T11:18:28.714Z,27.88
2017-05-24T11:19:30.199Z,26.25
2017-05-24T11:20:31.676Z,26.36
2017-05-24T11:21:33.152Z,26.59
2017-05-24T11:22:34.650Z,26.40
2017-05-24T11:23:36.128Z,27.24
2017-05-24T11:24:37.627Z,27.92
2017-05-24T11:25:39.111Z,28.54
2017-05-24T11:26:40.599Z,28.36
2017-05-24T11:27:42.079Z,26.87
2017-05-24T11:28:43.567Z,26.84
2017-05-24T11:29:45.065Z,27.41
2017-05-24T11:30:46.546Z,27.29
2017-05-24T11:31:48.046Z,25.93
2017-05-24T11:32:49.529Z,25.53
2017-05-24T11:33:51.005Z,24.77
2017-05-24T11:34:52.484Z,24.50
2017-05-24T11:35:53.969Z,24.56
2017-05-24T11:36:55.458Z,24.56
2017-05-24T11:37:57.125Z,24.91
2017-05-24T11:38:58.615Z,25.07
2017-05-24T11:40:00.162Z,25.05
2017-05-24T11:41:01.678Z,24.69
2017-05-24T11:42:03.171Z,24.32
2017-05-24T11:43:04.675Z,25.25
2017-05-24T11:44:06.203Z,25.64
2017-05-24T11:45:07.702Z,25.00
2017-05-24T11:46:09.194Z,24.75
2017-05-24T11:47:10.706Z,24.34
2017-05-24T11:48:12.228Z,25.25
2017-05-24T11:49:13.771Z,25.83
2017-05-24T11:50:15.324Z,26.05
2017-05-24T11:51:16.805Z,25.99
2017-05-24T11:52:18.288Z,26.31
2017-05-24T11:53:19.769Z,26.47
2017-05-24T11:54:21.273Z,26.54
2017-05-24T11:55:22.811Z,26.29
2017-05-24T11:56:24.304Z,25.74
2017-05-24T11:57:25.807Z,26.15
2017-05-24T11:58:27.326Z,25.94
2017-05-24T11:59:28.877Z,26.11
2017-05-24T12:00:30.412Z,26.12
2017-05-24T12:01:31.892Z,25.91
2017-05-24T12:02:33.380Z,25.75
2017-05-24T12:03:34.866Z,25.97
2017-05-24T12:04:36.350Z,25.12
2017-05-24T12:05:37.832Z,24.17
2017-05-24T12:06:39.324Z,24.42
2017-05-24T12:07:40.796Z,23.77
2017-05-24T12:08:42.280Z,23.38
2017-05-24T12:09:43.774Z,23.38
2017-05-24T12:10:45.540Z,23.29
2017-05-24T12:11:47.006Z,23.17
2017-05-24T12:12:48.480Z,23.04
2017-05-24T12:13:49.962Z,23.23
2017-05-24T12:14:51.439Z,24.26
2017-05-24T12:15:52.923Z,24.94
2017-05-24T12:16:54.417Z,25.17
2017-05-24T12:17:55.891Z,25.13
2017-05-24T12:18:57.398Z,25.22
2017-05-24T12:19:58.879Z,25.82
2017-05-24T12:21:00.375Z,25.99
2017-05-24T12:22:01.865Z,25.30
2017-05-24T12:23:03.340Z,24.68
2017-05-24T12:24:04.814Z,24.77
2017-05-24T12:25:06.288Z,24.90
2017-05-24T12:26:07.765Z,25.15
2017-05-24T12:27:09.243Z,25.47
2017-05-24T12:28:10.728Z,25.71
2017-05-24T12:29:12.214Z,26.57
2017-05-24T12:30:13.693Z,25.91
2017-05-24T12:31:15.209Z,27.35
2017-05-24T12:32:16.680Z,26.89
2017-05-24T12:33:18.160Z,25.47
2017-05-24T12:34:19.641Z,25.31
2017-05-24T12:35:21.147Z,25.54
2017-05-24T12:36:22.632Z,25.28
2017-05-24T12:37:24.103Z,25.79
2017-05-24T12:38:25.585Z,25.34
2017-05-24T12:39:27.070Z,25.43
2017-05-24T12:40:28.545Z,25.28
2017-05-24T12:41:30.024Z,25.37
2017-05-24T12:42:31.500Z,25.39
2017-05-24T12:43:32.981Z,24.97
2017-05-24T12:44:34.457Z,24.79
2017-05-24T12:45:35.940Z,24.38
2017-05-24T12:46:37.424Z,24.38
2017-05-24T12:47:38.906Z,23.86
2017-05-24T12:48:40.389Z,23.92
2017-05-24T12:49:41.864Z,23.83
2017-05-24T12:50:43.353Z,23.87
2017-05-24T12:51:44.823Z,23.49
2017-05-24T12:52:46.313Z,22.89
2017-05-24T12:53:47.792Z,22.50
2017-05-24T12:54:49.265Z,22.87
2017-05-24T12:55:50.789Z,23.05
2017-05-24T12:56:52.298Z,22.60
2017-05-24T12:57:53.775Z,22.60
2017-05-24T12:58:59.031Z,22.64
2017-05-24T12:59:59.523Z,22.71
2017-05-24T13:01:00.998Z,22.69
2017-05-24T13:02:02.476Z,22.77
2017-05-24T13:03:03.949Z,22.64
2017-05-24T13:04:05.434Z,22.57
2017-05-24T13:05:06.917Z,22.78
2017-05-24T13:06:08.403Z,22.89
2017-05-24T13:07:09.874Z,22.68
2017-05-24T13:08:11.345Z,22.80
2017-05-24T13:09:12.826Z,22.53
2017-05-24T13:10:14.301Z,22.34
2017-05-24T13:11:15.779Z,22.29